Time;durP1;ratioP1;P1;durP2;ratioP2;P2;SDS_P1;SDS_P2;PMS_P1;PMS_P2;Temp;Humidity;BMP_temperature;BMP_pressure;BME280_temperature;BME280_humidity;BME280_pressure;Samples;Min_cycle;Max_cycle;Signal;HPM_P1;HPM_P2
2021/03/18 00:00:59;;;;;;;15.02;7.18;;;1.20;93.10;;;;;;5062129;28;20491;-77
2021/03/18 00:03:30;;;;;;;12.07;7.15;;;1.10;93.00;;;;;;5044262;28;20088;-76
2021/03/18 00:05:56;;;;;;;11.57;5.88;;;1.00;92.90;;;;;;5054736;28;20036;-77
2021/03/18 00:08:22;;;;;;;14.60;7.65;;;1.00;92.90;;;;;;5039270;28;20029;-76
2021/03/18 00:10:47;;;;;;;14.43;6.25;;;0.80;93.10;;;;;;5058545;28;20036;-76
2021/03/18 00:13:13;;;;;;;17.70;6.63;;;0.90;93.40;;;;;;5029620;28;20044;-76
2021/03/18 00:15:39;;;;;;;13.82;6.88;;;0.70;93.20;;;;;;5056748;28;20089;-77
2021/03/18 00:18:06;;;;;;;11.63;6.28;;;0.80;93.40;;;;;;5037899;28;20028;-76
2021/03/18 00:20:31;;;;;;;14.75;6.55;;;0.80;93.40;;;;;;5017473;28;20033;-76
2021/03/18 00:22:57;;;;;;;10.27;5.82;;;0.80;93.40;;;;;;5058962;28;20035;-76
2021/03/18 00:25:22;;;;;;;8.65;5.53;;;0.80;93.40;;;;;;5009261;28;20042;-77
2021/03/18 00:27:48;;;;;;;8.85;4.88;;;1.00;93.20;;;;;;5027556;28;20432;-77
2021/03/18 00:30:15;;;;;;;9.02;5.75;;;1.00;93.20;;;;;;5057255;28;20037;-77
2021/03/18 00:32:41;;;;;;;10.90;5.97;;;1.00;92.90;;;;;;5018912;28;20116;-77
2021/03/18 00:35:07;;;;;;;9.40;5.63;;;1.00;93.00;;;;;;5040320;28;20123;-77
2021/03/18 00:37:34;;;;;;;9.00;5.28;;;0.80;93.10;;;;;;5023936;28;20052;-77
2021/03/18 00:40:00;;;;;;;12.00;6.05;;;0.70;93.10;;;;;;5057428;28;20032;-77
2021/03/18 00:42:25;;;;;;;14.57;6.60;;;0.60;93.30;;;;;;5040612;28;20056;-76
2021/03/18 00:44:51;;;;;;;13.23;6.07;;;0.50;93.30;;;;;;5039000;28;20448;-77
2021/03/18 00:47:17;;;;;;;11.57;5.25;;;0.40;93.60;;;;;;5056701;28;20036;-77
2021/03/18 00:49:43;;;;;;;10.98;5.70;;;0.30;93.40;;;;;;5042003;28;20037;-76
2021/03/18 00:52:08;;;;;;;9.50;4.88;;;0.40;93.60;;;;;;5054131;28;20502;-77
2021/03/18 00:54:34;;;;;;;11.10;5.15;;;0.40;93.30;;;;;;5039748;28;20041;-76
2021/03/18 00:56:59;;;;;;;12.25;5.88;;;0.50;93.60;;;;;;5040321;28;20101;-77
2021/03/18 00:59:25;;;;;;;10.50;5.60;;;0.50;93.50;;;;;;5016871;28;20442;-77
2021/03/18 01:01:50;;;;;;;10.68;5.45;;;0.40;93.50;;;;;;5039509;28;20029;-77
2021/03/18 01:04:16;;;;;;;10.18;5.03;;;0.40;93.50;;;;;;5033263;28;20137;-77
2021/03/18 01:06:41;;;;;;;10.70;5.55;;;0.30;93.60;;;;;;5073643;28;20119;-76
2021/03/18 01:09:07;;;;;;;11.35;6.10;;;0.30;93.80;;;;;;5051802;28;20107;-77
2021/03/18 01:11:35;;;;;;;10.35;6.40;;;0.30;93.60;;;;;;5040571;28;20052;-76
2021/03/18 01:14:03;;;;;;;11.60;6.53;;;0.30;93.70;;;;;;5056383;28;20050;-76
2021/03/18 01:16:35;;;;;;;11.85;5.80;;;0.20;93.50;;;;;;5052287;28;20572;-77
2021/03/18 01:19:04;;;;;;;13.18;6.68;;;0.10;93.60;;;;;;5052982;28;20040;-77
2021/03/18 01:21:35;;;;;;;8.70;5.38;;;0.10;93.70;;;;;;5029280;28;20029;-76
2021/03/18 01:24:01;;;;;;;9.55;6.53;;;0.10;93.90;;;;;;5040694;28;20369;-76
2021/03/18 01:26:27;;;;;;;12.90;6.50;;;0.10;93.80;;;;;;5029738;28;20067;-77
2021/03/18 01:28:52;;;;;;;10.65;6.43;;;0.00;93.90;;;;;;5051872;28;20040;-77
2021/03/18 01:31:18;;;;;;;9.65;6.30;;;0.00;94.00;;;;;;5024407;28;20033;-76
2021/03/18 01:33:43;;;;;;;12.65;6.20;;;0.00;93.80;;;;;;5057561;28;20044;-77
2021/03/18 01:36:12;;;;;;;12.48;6.45;;;0.00;93.90;;;;;;5054414;28;20091;-77
2021/03/18 01:38:38;;;;;;;10.70;4.90;;;-0.10;93.80;;;;;;5054127;28;20039;-77
2021/03/18 01:41:04;;;;;;;13.13;5.93;;;0.20;94.20;;;;;;5055634;28;20036;-77
2021/03/18 01:43:32;;;;;;;12.23;6.15;;;0.10;93.70;;;;;;5026829;28;20028;-77
2021/03/18 01:45:57;;;;;;;11.55;5.25;;;0.00;94.00;;;;;;5030735;28;20032;-76
2021/03/18 01:48:23;;;;;;;15.55;5.40;;;0.00;94.10;;;;;;5026592;28;20033;-77
2021/03/18 01:50:48;;;;;;;10.35;5.38;;;0.20;94.40;;;;;;5057499;28;20029;-76
2021/03/18 02:16:47;;;;;;;7.53;4.93;;;-0.20;94.20;;;;;;5046581;28;20125;-77
2021/03/18 02:19:49;;;;;;;10.52;5.43;;;0.00;94.30;;;;;;5045249;28;20029;-76
2021/03/18 02:22:23;;;;;;;8.52;5.38;;;0.00;93.90;;;;;;5049621;28;20060;-76
2021/03/18 02:25:04;;;;;;;13.15;6.57;;;0.00;94.00;;;;;;5051556;28;20029;-76
2021/03/18 02:27:50;;;;;;;9.55;5.65;;;-0.10;94.00;;;;;;5056034;28;20373;-76
2021/03/18 02:30:41;;;;;;;11.32;5.38;;;-0.20;94.10;;;;;;5047643;28;20037;-76
2021/03/18 02:33:14;;;;;;;9.70;6.28;;;-0.10;94.20;;;;;;5044318;28;20174;-76
2021/03/18 02:35:44;;;;;;;9.13;5.32;;;-0.20;93.90;;;;;;5037361;28;20396;-76
2021/03/18 02:38:14;;;;;;;10.10;5.93;;;-0.20;94.10;;;;;;5050521;28;20028;-77
2021/03/18 02:40:45;;;;;;;16.30;5.65;;;-0.10;93.90;;;;;;5023755;28;20032;-77
2021/03/18 02:43:12;;;;;;;12.43;7.05;;;-0.10;93.90;;;;;;5027585;28;20482;-76
2021/03/18 02:45:40;;;;;;;10.48;5.65;;;-0.20;93.90;;;;;;5006418;28;20031;-76
2021/03/18 02:48:07;;;;;;;9.25;5.05;;;-0.30;94.00;;;;;;5039653;28;20032;-77
2021/03/18 02:50:33;;;;;;;8.52;6.38;;;-0.20;94.10;;;;;;5020050;28;20111;-77
2021/03/18 02:52:59;;;;;;;13.02;6.15;;;-0.30;93.90;;;;;;5054761;28;20170;-77
2021/03/18 02:59:02;;;;;;;12.55;6.32;;;-0.20;94.00;;;;;;5022073;28;20428;-77
2021/03/18 03:01:28;;;;;;;15.40;6.40;;;-0.30;94.00;;;;;;5031428;28;20033;-76
2021/03/18 03:03:54;;;;;;;7.78;4.75;;;-0.40;94.10;;;;;;5051085;28;20036;-77
2021/03/18 03:06:20;;;;;;;13.25;6.20;;;-0.50;94.20;;;;;;5035846;28;20029;-76
2021/03/18 03:08:46;;;;;;;18.75;6.63;;;-0.40;94.20;;;;;;5025421;28;20028;-76
2021/03/18 03:11:12;;;;;;;14.15;6.50;;;-0.40;94.40;;;;;;5022183;28;20556;-76
2021/03/18 03:13:40;;;;;;;19.70;6.70;;;-0.50;94.00;;;;;;5022933;28;20382;-76
2021/03/18 03:16:07;;;;;;;10.73;6.22;;;-0.50;94.20;;;;;;5034648;28;20036;-76
2021/03/18 03:18:33;;;;;;;12.95;5.90;;;-0.40;94.40;;;;;;5008830;28;20634;-76
2021/03/18 03:20:59;;;;;;;15.93;6.53;;;-0.50;94.10;;;;;;5042929;28;20388;-77
2021/03/18 03:23:24;;;;;;;11.40;7.07;;;-0.50;94.20;;;;;;5031798;28;20029;-77
2021/03/18 03:25:50;;;;;;;11.48;5.78;;;-0.50;94.40;;;;;;5020917;28;20104;-77
2021/03/18 03:28:16;;;;;;;20.05;7.65;;;-0.50;94.30;;;;;;5025714;28;20071;-76
2021/03/18 03:30:41;;;;;;;12.48;6.45;;;-0.60;94.10;;;;;;5017477;28;20041;-76
2021/03/18 03:33:07;;;;;;;10.70;5.75;;;-0.50;94.10;;;;;;5055110;28;20115;-77
2021/03/18 03:35:33;;;;;;;12.63;6.50;;;-0.50;94.20;;;;;;5043117;28;20440;-77
2021/03/18 03:37:59;;;;;;;11.98;6.45;;;-0.50;94.10;;;;;;5025850;28;20074;-77
2021/03/18 03:40:24;;;;;;;11.18;6.80;;;-0.60;94.20;;;;;;5014065;28;20473;-77
2021/03/18 03:42:50;;;;;;;10.68;7.28;;;-0.60;94.20;;;;;;5018933;28;20032;-77
2021/03/18 03:45:16;;;;;;;12.23;7.05;;;-0.70;94.10;;;;;;5052359;28;20029;-77
2021/03/18 03:47:42;;;;;;;15.32;8.35;;;-0.60;94.40;;;;;;5036163;28;20090;-77
2021/03/18 03:50:10;;;;;;;12.20;6.78;;;-0.60;94.10;;;;;;5014105;28;20032;-77
2021/03/18 03:52:52;;;;;;;8.05;5.95;;;-0.70;94.20;;;;;;5041210;28;20550;-77
2021/03/18 03:55:27;;;;;;;20.27;7.32;;;-0.80;94.40;;;;;;5055031;28;20044;-76
2021/03/18 03:57:57;;;;;;;10.80;7.22;;;-0.80;94.20;;;;;;5043539;28;20025;-77
2021/03/18 04:00:23;;;;;;;19.15;7.28;;;-0.90;94.30;;;;;;5012944;28;20029;-77
2021/03/18 04:02:48;;;;;;;13.23;6.88;;;-0.80;94.40;;;;;;5023264;28;20496;-77
2021/03/18 04:05:14;;;;;;;13.73;6.72;;;-0.80;94.10;;;;;;5011594;28;20029;-77
2021/03/18 04:07:39;;;;;;;6.90;5.13;;;-0.80;94.10;;;;;;5034047;28;20484;-77
2021/03/18 04:10:05;;;;;;;9.73;5.82;;;-0.80;94.20;;;;;;5038702;28;20040;-77
2021/03/18 04:12:35;;;;;;;15.45;7.05;;;-0.70;94.40;;;;;;5030366;28;20057;-76
2021/03/18 04:15:06;;;;;;;10.55;5.70;;;-0.70;94.30;;;;;;5055929;28;20037;-77
2021/03/18 04:17:32;;;;;;;11.93;6.75;;;-0.60;94.60;;;;;;5028370;28;20469;-76
2021/03/18 04:19:58;;;;;;;13.80;6.05;;;-0.70;94.20;;;;;;5055452;28;20040;-77
2021/03/18 04:22:23;;;;;;;8.77;6.05;;;-0.60;94.40;;;;;;5030170;28;20153;-77
2021/03/18 04:24:50;;;;;;;11.27;6.75;;;-0.70;94.50;;;;;;5010323;28;20025;-77
2021/03/18 04:27:16;;;;;;;12.48;7.00;;;-0.60;94.60;;;;;;5022328;28;20021;-77
2021/03/18 04:29:42;;;;;;;12.10;7.40;;;-0.60;94.80;;;;;;5056066;28;20587;-77
2021/03/18 04:32:08;;;;;;;13.10;6.43;;;-0.50;94.80;;;;;;5036309;28;20119;-77
2021/03/18 04:34:33;;;;;;;12.85;7.22;;;-0.50;94.50;;;;;;5016063;28;20113;-77
2021/03/18 04:36:59;;;;;;;14.35;6.85;;;-0.50;94.60;;;;;;5042597;28;20032;-77
2021/03/18 04:39:24;;;;;;;14.68;7.22;;;-0.40;94.60;;;;;;5040230;28;20384;-77
2021/03/18 04:41:50;;;;;;;18.48;8.07;;;-0.30;94.50;;;;;;5045938;28;20033;-77
2021/03/18 04:44:16;;;;;;;17.70;8.60;;;-0.40;94.80;;;;;;5012891;28;20029;-77
2021/03/18 04:46:43;;;;;;;13.68;7.45;;;-0.40;94.90;;;;;;5051010;28;20028;-77
2021/03/18 04:49:09;;;;;;;15.68;7.15;;;-0.40;94.80;;;;;;5038769;28;20564;-77
2021/03/18 04:51:34;;;;;;;14.48;8.07;;;-0.40;94.70;;;;;;5024979;28;20101;-77
2021/03/18 04:54:00;;;;;;;14.13;7.82;;;-0.30;94.70;;;;;;5022337;28;20028;-77
2021/03/18 04:56:26;;;;;;;15.65;9.25;;;-0.20;94.60;;;;;;5006985;28;20045;-77
2021/03/18 04:58:53;;;;;;;12.90;7.82;;;-0.20;94.60;;;;;;5058123;28;20032;-77
2021/03/18 05:01:19;;;;;;;14.75;7.82;;;-0.20;94.60;;;;;;5017850;28;20112;-77
2021/03/18 05:03:44;;;;;;;13.60;7.38;;;-0.20;94.60;;;;;;5020304;28;20127;-77
2021/03/18 05:06:10;;;;;;;17.80;9.23;;;0.00;94.60;;;;;;5039894;28;20036;-77
2021/03/18 05:08:36;;;;;;;18.67;8.88;;;-0.10;94.60;;;;;;5011184;28;20038;-77
2021/03/18 05:11:01;;;;;;;16.17;8.43;;;-0.10;94.70;;;;;;5056787;28;20492;-77
2021/03/18 05:13:27;;;;;;;13.18;7.05;;;-0.10;94.70;;;;;;5026486;28;20057;-77
2021/03/18 05:15:53;;;;;;;13.88;9.13;;;-0.10;94.40;;;;;;5032023;28;20037;-77
2021/03/18 05:18:18;;;;;;;11.60;7.40;;;-0.10;94.70;;;;;;5005118;28;20041;-77
2021/03/18 05:20:45;;;;;;;11.13;7.00;;;-0.10;94.40;;;;;;5056552;28;20452;-78
2021/03/18 05:23:12;;;;;;;15.65;8.38;;;0.20;94.40;;;;;;5038911;28;20049;-78
2021/03/18 05:25:37;;;;;;;15.10;9.00;;;0.10;94.40;;;;;;5039946;28;20029;-77
2021/03/18 05:28:03;;;;;;;10.75;7.30;;;0.10;94.60;;;;;;5056739;28;20427;-77
2021/03/18 05:30:29;;;;;;;19.42;9.73;;;0.00;94.60;;;;;;5015045;28;20057;-78
2021/03/18 05:32:58;;;;;;;19.60;10.35;;;0.00;94.70;;;;;;5007962;28;20032;-77
2021/03/18 05:35:23;;;;;;;17.88;9.38;;;0.00;94.80;;;;;;5017729;28;20037;-77
2021/03/18 05:37:49;;;;;;;22.23;8.23;;;0.00;94.80;;;;;;5018734;28;20119;-77
2021/03/18 05:40:16;;;;;;;8.98;7.13;;;0.10;94.60;;;;;;5025901;28;20040;-78
2021/03/18 05:42:41;;;;;;;15.70;10.10;;;0.20;94.50;;;;;;5046317;28;20547;-77
2021/03/18 05:45:10;;;;;;;10.27;6.75;;;0.20;94.60;;;;;;5013523;28;20029;-77
2021/03/18 05:47:35;;;;;;;16.48;9.85;;;0.10;94.50;;;;;;5037118;28;20427;-77
2021/03/18 05:50:01;;;;;;;16.90;10.10;;;0.10;94.60;;;;;;5037891;28;20029;-77
2021/03/18 05:52:27;;;;;;;16.85;9.63;;;0.20;94.60;;;;;;5025196;28;20154;-78
2021/03/18 05:54:53;;;;;;;12.63;6.68;;;0.20;94.70;;;;;;5029383;28;20033;-77
2021/03/18 05:57:18;;;;;;;12.20;8.32;;;0.30;94.40;;;;;;5013386;28;20396;-78
2021/03/18 05:59:44;;;;;;;15.60;9.50;;;0.30;94.50;;;;;;5022016;28;20032;-76
2021/03/18 06:02:09;;;;;;;10.45;7.68;;;0.20;94.50;;;;;;5034663;28;20040;-76
2021/03/18 06:04:35;;;;;;;15.90;9.27;;;0.20;94.70;;;;;;5025897;28;20026;-77
2021/03/18 06:07:01;;;;;;;24.63;11.20;;;0.40;94.60;;;;;;5027970;28;20068;-77
2021/03/18 06:09:27;;;;;;;17.17;10.48;;;0.30;94.60;;;;;;5007132;28;20123;-77
2021/03/18 06:11:52;;;;;;;21.02;10.48;;;0.30;94.80;;;;;;5015620;28;20125;-77
2021/03/18 06:14:18;;;;;;;17.00;10.13;;;0.30;94.80;;;;;;5024001;28;20029;-77
2021/03/18 06:16:43;;;;;;;17.90;10.15;;;0.30;94.70;;;;;;5013725;28;20052;-77
2021/03/18 06:19:09;;;;;;;12.65;9.27;;;0.50;94.80;;;;;;5036328;28;20483;-77
2021/03/18 06:21:48;;;;;;;14.65;9.00;;;0.50;94.40;;;;;;5047850;28;20041;-77
2021/03/18 06:24:14;;;;;;;15.95;9.32;;;0.50;94.50;;;;;;5050017;28;20067;-77
2021/03/18 06:26:40;;;;;;;15.57;10.05;;;0.60;94.50;;;;;;5037109;28;20029;-77
2021/03/18 06:29:26;;;;;;;18.08;11.30;;;0.60;94.40;;;;;;5026138;28;20029;-77
2021/03/18 06:31:51;;;;;;;14.02;8.60;;;0.60;94.50;;;;;;5053815;28;20182;-77
2021/03/18 06:34:41;;;;;;;14.98;8.20;;;0.70;94.40;;;;;;5014265;28;20123;-77
2021/03/18 06:37:32;;;;;;;17.95;9.43;;;0.80;94.30;;;;;;5052843;28;20025;-77
2021/03/18 06:40:18;;;;;;;18.77;11.27;;;0.70;94.60;;;;;;5035676;28;20020;-77
2021/03/18 06:43:00;;;;;;;16.43;11.47;;;0.70;94.50;;;;;;5028638;28;20083;-77
2021/03/18 06:45:36;;;;;;;19.92;10.32;;;0.80;94.60;;;;;;5007682;28;20396;-77
2021/03/18 06:48:03;;;;;;;18.13;9.43;;;0.80;94.70;;;;;;5047106;28;20032;-77
2021/03/18 06:50:37;;;;;;;15.45;10.27;;;0.90;94.80;;;;;;5044639;28;20029;-77
2021/03/18 06:53:17;;;;;;;22.00;12.80;;;1.00;94.70;;;;;;5029863;28;20212;-78
2021/03/18 06:55:42;;;;;;;20.10;12.70;;;0.90;94.90;;;;;;5029031;28;20536;-78
2021/03/18 06:58:14;;;;;;;19.02;10.95;;;1.10;94.70;;;;;;5031895;28;20116;-77
2021/03/18 07:00:39;;;;;;;19.42;12.30;;;1.10;94.70;;;;;;5052655;28;20040;-77
2021/03/18 07:03:07;;;;;;;16.35;10.68;;;1.20;94.80;;;;;;5009997;28;20025;-76
2021/03/18 07:05:37;;;;;;;17.98;8.98;;;1.20;94.50;;;;;;5011692;28;20547;-75
2021/03/18 07:08:04;;;;;;;20.33;9.85;;;1.30;94.20;;;;;;5052037;28;20116;-76
2021/03/18 07:10:33;;;;;;;14.80;10.27;;;1.50;94.30;;;;;;5012973;28;20037;-76
2021/03/18 07:13:22;;;;;;;21.30;11.00;;;1.60;94.00;;;;;;5033393;28;20041;-76
2021/03/18 07:15:48;;;;;;;17.13;11.43;;;1.60;94.40;;;;;;5060463;28;20040;-76
2021/03/18 07:18:14;;;;;;;20.33;12.63;;;1.60;95.20;;;;;;5012886;28;20207;-76
2021/03/18 07:21:08;;;;;;;24.17;11.75;;;1.80;94.50;;;;;;5032373;28;20075;-77
2021/03/18 07:23:40;;;;;;;16.65;10.43;;;1.80;95.00;;;;;;5057104;28;20032;-77
2021/03/18 07:26:18;;;;;;;22.05;12.98;;;2.00;94.40;;;;;;5019618;28;20036;-77
2021/03/18 07:28:46;;;;;;;16.15;9.25;;;2.10;95.30;;;;;;5049449;28;20106;-77
2021/03/18 07:31:12;;;;;;;23.05;13.35;;;2.30;94.30;;;;;;5053060;28;20563;-77
2021/03/18 07:33:38;;;;;;;11.30;7.97;;;2.40;94.90;;;;;;5035725;28;20238;-77
2021/03/18 07:36:04;;;;;;;12.93;8.52;;;2.50;94.50;;;;;;5039133;28;20446;-77
2021/03/18 07:38:29;;;;;;;17.85;10.85;;;2.60;94.10;;;;;;5029960;28;20056;-77
2021/03/18 07:40:56;;;;;;;15.52;10.75;;;2.70;94.40;;;;;;5024899;28;20044;-77
2021/03/18 07:43:23;;;;;;;20.25;12.65;;;2.90;95.00;;;;;;5034758;28;20115;-77
2021/03/18 07:45:48;;;;;;;18.42;11.13;;;3.00;95.00;;;;;;5039800;28;20036;-77
2021/03/18 07:48:14;;;;;;;12.98;7.20;;;3.10;95.80;;;;;;5056829;28;20028;-77
2021/03/18 07:50:40;;;;;;;14.75;6.72;;;3.30;94.40;;;;;;5031043;28;20590;-77
2021/03/18 07:53:07;;;;;;;19.35;8.82;;;3.50;95.10;;;;;;5042981;28;20033;-77
2021/03/18 07:55:33;;;;;;;11.15;7.50;;;3.70;94.30;;;;;;5036607;28;20102;-78
2021/03/18 07:57:59;;;;;;;14.90;9.27;;;3.80;94.80;;;;;;5055955;28;20028;-77
2021/03/18 08:00:24;;;;;;;14.25;8.85;;;3.90;96.20;;;;;;5012891;28;20457;-77
2021/03/18 08:02:51;;;;;;;16.60;9.40;;;3.90;96.10;;;;;;5039299;28;20435;-76
2021/03/18 08:05:46;;;;;;;16.45;9.07;;;4.00;96.70;;;;;;5036429;28;20033;-76
2021/03/18 08:08:31;;;;;;;11.68;6.97;;;4.10;96.90;;;;;;5032106;28;20611;-77
2021/03/18 08:11:12;;;;;;;11.38;6.97;;;4.30;94.80;;;;;;5045371;28;20028;-77
2021/03/18 08:13:45;;;;;;;10.85;7.57;;;4.40;94.40;;;;;;5043264;28;20397;-77
2021/03/18 08:16:30;;;;;;;22.50;8.30;;;4.50;96.30;;;;;;5042342;28;20040;-77
2021/03/18 08:18:55;;;;;;;12.07;7.53;;;4.60;97.10;;;;;;5036289;28;20033;-77
2021/03/18 08:21:29;;;;;;;14.30;7.35;;;4.80;96.30;;;;;;5028738;28;20102;-77
2021/03/18 08:23:55;;;;;;;9.80;6.43;;;4.80;94.50;;;;;;5020584;28;20520;-77
2021/03/18 08:26:22;;;;;;;13.82;7.55;;;4.90;96.00;;;;;;5037645;28;20032;-76
2021/03/18 08:28:49;;;;;;;18.10;7.93;;;5.10;97.10;;;;;;5039146;28;20052;-77
2021/03/18 08:31:17;;;;;;;17.13;7.55;;;5.20;97.30;;;;;;5028389;28;20036;-77
2021/03/18 08:33:45;;;;;;;22.75;8.48;;;5.30;97.30;;;;;;5029613;28;20043;-77
2021/03/18 08:36:26;;;;;;;17.95;7.82;;;5.50;97.00;;;;;;5053098;28;20037;-76
2021/03/18 08:39:06;;;;;;;17.08;8.40;;;5.60;97.80;;;;;;5052227;28;20029;-77
2021/03/18 08:41:36;;;;;;;13.95;7.97;;;5.80;97.80;;;;;;5055469;28;20037;-77
2021/03/18 08:44:15;;;;;;;18.50;8.52;;;5.90;97.30;;;;;;5038956;28;20032;-75
2021/03/18 08:46:42;;;;;;;13.73;7.50;;;6.00;97.80;;;;;;5038855;28;20043;-75
2021/03/18 08:49:33;;;;;;;14.10;7.03;;;6.10;97.10;;;;;;5054396;28;20488;-75
2021/03/18 08:52:04;;;;;;;19.23;8.77;;;6.30;97.60;;;;;;5050787;28;20416;-75
2021/03/18 08:54:36;;;;;;;17.63;9.45;;;6.40;97.60;;;;;;5052923;28;20097;-75
2021/03/18 08:57:21;;;;;;;19.35;10.02;;;6.70;98.00;;;;;;5055897;28;20119;-75
2021/03/18 08:59:52;;;;;;;18.73;9.88;;;6.80;97.90;;;;;;5048532;28;20032;-75
2021/03/18 09:02:20;;;;;;;14.75;8.88;;;6.90;98.10;;;;;;5036627;28;20120;-75
2021/03/18 09:04:49;;;;;;;20.83;9.52;;;7.10;98.20;;;;;;5051459;28;20033;-75
2021/03/18 09:07:18;;;;;;;20.40;9.00;;;7.20;97.60;;;;;;5026355;28;20033;-75
2021/03/18 09:09:44;;;;;;;22.23;9.32;;;7.40;97.20;;;;;;5045980;28;20124;-75
2021/03/18 09:12:09;;;;;;;22.95;10.05;;;7.50;98.40;;;;;;5039273;28;20040;-75
2021/03/18 09:14:36;;;;;;;9.52;4.93;;;7.80;98.50;;;;;;5036985;28;20053;-75
2021/03/18 09:17:12;;;;;;;22.75;8.43;;;7.70;94.80;;;;;;5040071;28;20419;-75
2021/03/18 09:19:38;;;;;;;13.73;6.63;;;7.80;98.20;;;;;;5038869;28;20068;-75
2021/03/18 09:22:04;;;;;;;10.45;5.57;;;8.10;98.50;;;;;;5034996;28;20021;-75
2021/03/18 09:24:39;;;;;;;11.65;5.80;;;8.20;98.10;;;;;;5010684;28;20082;-75
2021/03/18 09:27:05;;;;;;;10.15;6.43;;;8.50;97.90;;;;;;5038961;28;20670;-76
2021/03/18 09:29:31;;;;;;;15.23;8.13;;;8.50;97.90;;;;;;5058238;28;20571;-75
2021/03/18 09:32:03;;;;;;;15.63;9.50;;;8.60;97.80;;;;;;5055875;28;20032;-75
2021/03/18 09:34:32;;;;;;;8.55;4.20;;;8.60;97.40;;;;;;5055075;28;20506;-75
2021/03/18 09:36:58;;;;;;;22.02;11.30;;;8.50;94.80;;;;;;5037805;28;20021;-76
2021/03/18 09:39:23;;;;;;;37.55;17.05;;;8.20;95.10;;;;;;5039875;28;20546;-76
2021/03/18 09:41:49;;;;;;;34.38;15.50;;;8.40;96.20;;;;;;5039130;28;20028;-75
2021/03/18 09:44:20;;;;;;;38.60;18.83;;;8.70;96.80;;;;;;5027975;28;20029;-76
2021/03/18 09:46:53;;;;;;;44.45;18.70;;;8.80;97.30;;;;;;5042982;28;20488;-76
2021/03/18 09:49:30;;;;;;;33.67;17.25;;;8.90;97.20;;;;;;5020299;28;20055;-76
2021/03/18 09:51:56;;;;;;;48.72;25.55;;;9.00;95.60;;;;;;5011639;28;24373;-76
2021/03/18 09:54:22;;;;;;;42.80;22.35;;;9.20;96.80;;;;;;5032388;28;20025;-75
2021/03/18 09:56:50;;;;;;;23.45;8.88;;;9.30;96.50;;;;;;5024652;28;20448;-76
2021/03/18 09:59:15;;;;;;;53.25;26.75;;;8.70;91.70;;;;;;5036225;28;20365;-76
2021/03/18 10:01:41;;;;;;;50.58;25.15;;;8.60;96.10;;;;;;5025152;28;20052;-75
2021/03/18 10:04:12;;;;;;;31.73;17.52;;;9.00;96.20;;;;;;5027510;28;20433;-76
2021/03/18 10:06:40;;;;;;;41.35;20.48;;;9.20;94.40;;;;;;5026546;28;20106;-76
2021/03/18 10:09:30;;;;;;;45.67;21.27;;;9.30;95.70;;;;;;5032488;28;20048;-76
2021/03/18 10:11:56;;;;;;;44.00;21.63;;;9.30;92.70;;;;;;5013894;28;20032;-76
2021/03/18 10:14:32;;;;;;;47.42;22.35;;;9.30;95.50;;;;;;5046997;28;20354;-76
2021/03/18 10:16:59;;;;;;;39.83;18.35;;;9.40;96.00;;;;;;5035625;28;20176;-75
2021/03/18 10:19:28;;;;;;;37.55;18.90;;;9.80;93.40;;;;;;5012271;28;20500;-76
2021/03/18 10:21:54;;;;;;;43.72;20.85;;;9.20;93.80;;;;;;5026687;28;20031;-75
2021/03/18 10:24:20;;;;;;;42.97;21.60;;;9.60;95.60;;;;;;5035095;28;20021;-75
2021/03/18 10:26:45;;;;;;;47.92;26.55;;;9.80;94.90;;;;;;5021325;28;20388;-75
2021/03/18 10:29:11;;;;;;;51.25;25.35;;;9.80;95.20;;;;;;5048205;28;20033;-75
2021/03/18 10:31:38;;;;;;;42.65;22.38;;;10.10;94.60;;;;;;5037441;28;20176;-75
2021/03/18 10:34:05;;;;;;;41.42;20.70;;;9.90;93.50;;;;;;5035697;28;20028;-76
2021/03/18 10:36:37;;;;;;;23.08;11.52;;;10.10;93.20;;;;;;5036222;28;20479;-76
2021/03/18 10:39:06;;;;;;;37.60;17.95;;;10.10;89.70;;;;;;5052006;28;20385;-75
2021/03/18 10:41:31;;;;;;;28.83;15.32;;;9.70;94.40;;;;;;5036476;28;20032;-76
2021/03/18 10:43:57;;;;;;;34.85;18.52;;;9.90;93.10;;;;;;5042525;28;20052;-76
2021/03/18 10:46:30;;;;;;;40.25;20.25;;;10.20;92.70;;;;;;5035417;28;20520;-75
2021/03/18 10:48:56;;;;;;;38.92;19.00;;;10.40;94.10;;;;;;5045173;28;20024;-75
2021/03/18 10:51:21;;;;;;;34.28;18.55;;;10.70;93.60;;;;;;5018185;28;20029;-75
2021/03/18 10:53:48;;;;;;;34.28;17.73;;;11.10;93.40;;;;;;5032168;28;20377;-76
2021/03/18 10:56:20;;;;;;;29.15;16.33;;;11.20;93.40;;;;;;5011188;28;20520;-76
2021/03/18 10:58:46;;;;;;;26.08;15.38;;;11.40;93.20;;;;;;5052301;28;20110;-76
2021/03/18 11:01:13;;;;;;;23.60;12.73;;;11.50;91.60;;;;;;5051145;28;20057;-76
2021/03/18 11:03:42;;;;;;;22.73;12.93;;;11.60;92.40;;;;;;5026960;28;20029;-76
2021/03/18 11:06:18;;;;;;;27.02;13.43;;;11.70;92.30;;;;;;5036024;28;20116;-76
2021/03/18 11:08:44;;;;;;;;;;;11.70;91.80;;;;;;5046287;28;20033;-76
2021/03/18 11:11:21;;;;;;;18.33;10.32;;;11.70;92.30;;;;;;5049316;28;19912;-76
2021/03/18 11:13:47;;;;;;;21.45;10.07;;;11.60;91.90;;;;;;5038325;28;20032;-76
2021/03/18 11:16:19;;;;;;;19.55;9.18;;;11.70;91.70;;;;;;5032109;28;20037;-76
2021/03/18 11:18:45;;;;;;;17.77;8.95;;;11.80;90.30;;;;;;5023340;28;20083;-76
2021/03/18 11:21:19;;;;;;;16.75;6.95;;;11.80;90.40;;;;;;5040067;28;20057;-75
2021/03/18 11:23:45;;;;;;;8.48;5.90;;;11.80;91.10;;;;;;5025130;28;20044;-76
2021/03/18 11:26:10;;;;;;;11.52;7.03;;;11.60;90.50;;;;;;5049368;28;20079;-76
2021/03/18 11:28:36;;;;;;;12.43;6.32;;;11.40;90.80;;;;;;5033156;28;20039;-76
2021/03/18 11:31:11;;;;;;;10.90;7.07;;;11.60;90.00;;;;;;5049190;28;20066;-76
2021/03/18 11:33:36;;;;;;;11.50;6.70;;;11.60;89.90;;;;;;5049371;28;20033;-76
2021/03/18 11:36:04;;;;;;;8.95;5.80;;;11.50;90.20;;;;;;5053223;28;20041;-76
2021/03/18 11:38:29;;;;;;;10.63;5.50;;;11.40;90.10;;;;;;5052281;28;20484;-76
2021/03/18 11:40:55;;;;;;;6.95;4.47;;;11.30;89.60;;;;;;5055622;28;20090;-76
2021/03/18 11:43:21;;;;;;;11.40;5.47;;;11.30;89.10;;;;;;5039878;28;20071;-76
2021/03/18 11:45:46;;;;;;;6.00;4.40;;;11.20;89.40;;;;;;5056496;28;20036;-75
2021/03/18 11:48:12;;;;;;;12.10;4.68;;;11.20;88.70;;;;;;5038507;28;20103;-76
2021/03/18 11:50:38;;;;;;;12.15;5.72;;;11.10;88.80;;;;;;5025744;28;20112;-76
2021/03/18 11:53:03;;;;;;;10.52;4.63;;;11.10;88.30;;;;;;5035083;28;20036;-78
2021/03/18 11:55:29;;;;;;;7.93;5.45;;;11.10;87.10;;;;;;5037387;28;20037;-77
2021/03/18 11:57:57;;;;;;;11.43;6.88;;;11.10;87.90;;;;;;5043712;28;20452;-77
2021/03/18 12:00:24;;;;;;;11.02;5.35;;;11.10;87.50;;;;;;5015161;28;20049;-77
2021/03/18 12:02:49;;;;;;;7.32;3.72;;;10.90;84.40;;;;;;5023785;28;20074;-77
2021/03/18 12:05:15;;;;;;;8.77;4.93;;;11.00;88.50;;;;;;5050896;28;20396;-76
2021/03/18 12:07:40;;;;;;;7.25;4.38;;;10.60;85.10;;;;;;5030932;28;20040;-77
2021/03/18 12:10:06;;;;;;;6.22;3.20;;;10.60;88.40;;;;;;5041531;28;20471;-77
2021/03/18 12:12:32;;;;;;;9.07;4.13;;;10.50;83.60;;;;;;5055644;28;20436;-77
2021/03/18 12:14:57;;;;;;;7.88;4.70;;;10.40;83.30;;;;;;5016388;28;20119;-77
2021/03/18 12:17:23;;;;;;;8.88;5.32;;;10.70;87.10;;;;;;5055151;28;20218;-77
2021/03/18 12:19:48;;;;;;;7.40;4.35;;;10.90;88.20;;;;;;5061862;28;20032;-77
2021/03/18 12:22:14;;;;;;;9.80;4.90;;;10.90;87.20;;;;;;5021523;28;20125;-76
2021/03/18 12:24:39;;;;;;;8.48;4.45;;;10.80;87.30;;;;;;5057697;28;20033;-77
2021/03/18 12:27:05;;;;;;;7.80;4.60;;;10.90;86.80;;;;;;5057035;28;20029;-77
2021/03/18 12:29:30;;;;;;;10.60;5.05;;;10.70;85.90;;;;;;5033719;28;20568;-76
2021/03/18 12:31:56;;;;;;;7.60;4.47;;;10.70;83.50;;;;;;5056831;28;20511;-77
2021/03/18 12:34:21;;;;;;;12.18;5.13;;;10.50;84.70;;;;;;5033045;28;20698;-77
2021/03/18 12:36:47;;;;;;;7.13;4.55;;;10.20;85.20;;;;;;5025659;28;20044;-77
2021/03/18 12:39:13;;;;;;;7.22;4.10;;;10.40;87.00;;;;;;5023852;28;20067;-76
2021/03/18 12:41:44;;;;;;;5.03;3.40;;;10.00;83.10;;;;;;5037114;28;20037;-77
2021/03/18 12:44:10;;;;;;;12.40;4.30;;;10.00;86.00;;;;;;5018380;28;20033;-76
2021/03/18 12:46:35;;;;;;;7.82;4.30;;;9.90;85.60;;;;;;5056786;28;20043;-77
2021/03/18 12:49:01;;;;;;;4.03;3.35;;;10.10;86.60;;;;;;5038801;28;20480;-76
2021/03/18 12:51:26;;;;;;;11.88;2.83;;;9.80;81.80;;;;;;5029411;28;20476;-77
2021/03/18 12:53:52;;;;;;;6.25;3.38;;;9.50;82.90;;;;;;5029504;28;20086;-76
2021/03/18 12:56:18;;;;;;;10.15;4.15;;;9.30;83.50;;;;;;5039073;28;20036;-77
2021/03/18 12:58:43;;;;;;;9.75;5.40;;;9.50;88.00;;;;;;5036804;28;20376;-77
2021/03/18 13:01:10;;;;;;;14.18;8.15;;;9.60;87.90;;;;;;5060465;28;20403;-77
2021/03/18 13:03:37;;;;;;;11.70;6.18;;;9.70;87.70;;;;;;5048216;28;20088;-77
2021/03/18 13:06:04;;;;;;;15.30;7.07;;;9.60;87.10;;;;;;5058228;28;20032;-77
2021/03/18 13:08:30;;;;;;;8.35;5.75;;;9.50;88.10;;;;;;5024424;28;20556;-77
2021/03/18 13:10:55;;;;;;;9.63;6.10;;;9.40;88.10;;;;;;5056366;28;20024;-77
2021/03/18 13:13:21;;;;;;;9.63;4.63;;;9.20;88.60;;;;;;5040514;28;20025;-77
2021/03/18 13:15:46;;;;;;;12.23;6.05;;;8.90;86.40;;;;;;5056155;28;20476;-76